map of OSW home
OSW - Airport
Location
City:  Orsk, Orenburgskaya, Russian Federation (Russia)
Name:Orsk Airport
ICAO:UWOR
IATA:OSW

Details
Type:Airport (Aerodrome, Airfield)
Use:Public/Civil, International (customs port of entry)
Latitude:5104'21"N (51.072500)
Longitude:5835'45"E (58.595833)
Elevation:909 ft (277 m)
Variation:11.14E (WMM2015 magnetic declination)
0.08 annual change
Runways:1
Longest:9514 × 138 ft (2900 × 42 m), paved

Time
Time Zone:UTC+5 (DST+6)

Weather
METAR:UWOR 190400Z 25003MPS CAVOK M08/M12 Q1025 R25/810055 NOSIG RMK QFE745/0993

Related Locations
Nearby:
Farthest:IPC: 10666 mi / 17166 km
Easter Island (Isla de Pascua, Rapa Nui) [Mataveri Intl], VS, CL

Find:

   beyond  
but within

Other Information
Maps:
NOTAMs:
Links:
Sources:

  
  • flag of Russian Federation (Russia)
  • flag of Orenburgskaya
  

Airport Diagram

Airport diagram for OSW

Larger airport diagram from AIP of the Russian Federation

Sectional Chart

Flight Planning
at skyvector.com

Satellite Image

Google Maps Satellite view

Yandex Maps Satellite view


 

Copyright © 2004-2018 Karl L. Swartz. All rights reserved.
The Great Circle Mapper name and logo are trademarks of the Great Circle Mapper.
All other trademarks mentioned herein belong to their respective owners.
Please see credits for attibutions and further copyright information.

  Follow gcmap on Facebook Follow gcmap on Twitter Follow gcmap on Google+ GCmap on LinkedIn

hCard Microformat

Geo Microformat